Girolata — FPOD — position and weather

sailwx.info

Track history (hours):
 
Tides and Currents Weather Stations Pressure Air Temp Water Temp Dewpoint Dewpoint Depression Visibility Wind Speed Wind Dir Waves Ship Positions

Girolata

Last reported at 2018-Jun-19 18:01 UTC. Time now 2018-Jun-19 20:03 UTC.
Position N 43°11' E 005°19'.

Length 177 m; beam 27 m.

Type: Passenger vessel. MMSI: 226245000.

Date/timePositionNaut miles runAvg speedWind from/ knotsBaromVisibWave heightAir tempDewpointWater temp
2018-Jun-19 18:01N 43°11' E 005°19'017.2
2018-Jun-19 18:00N 43°12' E 005°19'612.7
2018-Jun-19 17:31N 43°18' E 005°21'1 1.8
2018-Jun-19 16:54N 43°19' E 005°22'0 0.0
2018-Jun-19 16:06N 43°19' E 005°22'0 0.0
2018-Jun-19 15:57N 43°19' E 005°22'0 0.0
2018-Jun-19 15:30N 43°19' E 005°22'0 0.0
2018-Jun-19 15:00N 43°19' E 005°22'0 0.0
2018-Jun-19 14:15N 43°19' E 005°22'0 0.0
2018-Jun-19 13:51N 43°19' E 005°22'0 0.0
2018-Jun-19 13:27N 43°19' E 005°22'0 0.0
2018-Jun-19 12:03N 43°19' E 005°22'0 0.0
2018-Jun-19 11:57N 43°19' E 005°22'0 0.0
2018-Jun-19 11:27N 43°19' E 005°22'0 0.0
2018-Jun-19 10:57N 43°19' E 005°22'0 0.0
2018-Jun-19 10:27N 43°19' E 005°22'0 0.0
2018-Jun-19 10:00N 43°19' E 005°22'0 0.0
2018-Jun-19 09:30N 43°19' E 005°22'0 0.0
2018-Jun-19 09:00N 43°19' E 005°22'0 0.0
2018-Jun-19 08:30N 43°19' E 005°22'0 0.0
2018-Jun-19 07:54N 43°19' E 005°22'0 0.0
2018-Jun-19 07:30N 43°19' E 005°22'0 0.0
2018-Jun-19 07:00N 43°19' E 005°22'0 0.0
2018-Jun-19 06:30N 43°19' E 005°22'0 0.0
2018-Jun-19 06:00N 43°19' E 005°22'0 0.0
2018-Jun-19 05:30N 43°19' E 005°22'0 0.0
2018-Jun-19 04:58N 43°19' E 005°22'1 1.4
2018-Jun-19 04:31N 43°18' E 005°22'510.4
2018-Jun-19 04:00N 43°13' E 005°18'7416.5
2018-Jun-18 23:30N 42°34' E 006°44'3016.6
2018-Jun-18 21:43N 42°20' E 007°19'716.5
2018-Jun-18 21:18N 42°16' E 007°27'516.5
2018-Jun-18 20:58N 42°14' E 007°34'11 0.6
2018-Jun-18 01:26N 42°08' E 007°47'716.4
2018-Jun-18 01:00N 42°11' E 007°39'816.2
2018-Jun-18 00:30N 42°15' E 007°29'816.2
2018-Jun-18 00:00N 42°19' E 007°20'816.5
2018-Jun-17 23:31N 42°23' E 007°10'916.7
2018-Jun-17 22:59N 42°27' E 006°60'816.7
2018-Jun-17 22:30N 42°31' E 006°50'816.8
2018-Jun-17 22:00N 42°36' E 006°41'816.8
2018-Jun-17 21:31N 42°40' E 006°31'816.6
2018-Jun-17 21:01N 42°44' E 006°21'5316.7
2018-Jun-17 17:49N 43°11' E 005°18'515.7
2018-Jun-17 17:30N 43°16' E 005°19'3 5.4
2018-Jun-17 16:53N 43°19' E 005°22'0 0.0
2018-Jun-17 16:29N 43°19' E 005°22'0 0.0
2018-Jun-17 15:59N 43°19' E 005°22'0 0.0
2018-Jun-17 15:29N 43°19' E 005°22'0 0.0
2018-Jun-17 14:53N 43°19' E 005°22'0 0.0
2018-Jun-17 14:29N 43°19' E 005°22'0 0.0
2018-Jun-17 13:59N 43°19' E 005°22'0 0.0
2018-Jun-17 13:29N 43°19' E 005°22'0 0.0
2018-Jun-17 12:47N 43°19' E 005°22'0 0.0
2018-Jun-17 12:29N 43°19' E 005°22'0 0.0
2018-Jun-17 11:59N 43°19' E 005°22'0 0.0
2018-Jun-17 11:29N 43°19' E 005°22'0 0.0
2018-Jun-17 10:59N 43°19' E 005°22'0 0.0
2018-Jun-17 10:29N 43°19' E 005°22'0 0.0
2018-Jun-17 09:53N 43°19' E 005°22'0 0.0
2018-Jun-17 09:29N 43°19' E 005°22'0 0.0
2018-Jun-17 08:59N 43°19' E 005°22'0 0.0
2018-Jun-17 08:29N 43°19' E 005°22'0 0.0
2018-Jun-17 07:59N 43°19' E 005°22'0 0.0
2018-Jun-17 07:29N 43°19' E 005°22'0 0.0
2018-Jun-17 06:59N 43°19' E 005°22'0 0.0
2018-Jun-17 06:29N 43°19' E 005°22'0 0.0
2018-Jun-17 05:59N 43°19' E 005°22'0 0.0
2018-Jun-17 05:30N 43°19' E 005°22'3 5.4
2018-Jun-17 05:00N 43°17' E 005°19'3113.7
2018-Jun-17 02:44N 42°56' E 005°51'415.4
2018-Jun-17 02:30N 42°54' E 005°55'815.7
2018-Jun-17 02:01N 42°51' E 006°04'815.8
2018-Jun-17 01:31N 42°47' E 006°14'815.9
2018-Jun-17 01:00N 42°43' E 006°23'816.1
2018-Jun-17 00:31N 42°39' E 006°33'815.9
2018-Jun-17 00:01N 42°35' E 006°43'815.4
2018-Jun-16 23:31N 42°32' E 006°52'815.4
2018-Jun-16 23:01N 42°28' E 007°01'815.2
2018-Jun-16 22:31N 42°24' E 007°10'815.2
2018-Jun-16 22:01N 42°20' E 007°19'815.4
2018-Jun-16 21:31N 42°17' E 007°28'915.3
2018-Jun-16 20:55N 42°12' E 007°38'615.4
2018-Jun-16 20:30N 42°09' E 007°46'815.4
2018-Jun-16 20:00N 42°05' E 007°55'21 1.2
2018-Jun-16 02:38N 41°55' E 008°19'618.1
2018-Jun-16 02:18N 41°58' E 008°12'518.0
2018-Jun-16 02:00N 42°00' E 008°05'918.0
2018-Jun-16 01:31N 42°05' E 007°55'918.0
2018-Jun-16 01:00N 42°09' E 007°44'918.0
2018-Jun-16 00:30N 42°14' E 007°34'918.1
2018-Jun-16 00:01N 42°18' E 007°23'918.0
2018-Jun-15 23:31N 42°22' E 007°12'917.7
2018-Jun-15 23:01N 42°27' E 007°02'917.3
2018-Jun-15 22:30N 42°31' E 006°52'917.7
2018-Jun-15 22:00N 42°35' E 006°41'917.7
2018-Jun-15 21:31N 42°40' E 006°31'917.8
2018-Jun-15 21:00N 42°44' E 006°20'917.1
2018-Jun-15 20:30N 42°48' E 006°10'1017.1
2018-Jun-15 19:54N 42°54' E 005°58'3417.3
2018-Jun-15 17:55N 43°12' E 005°19'613.9
2018-Jun-15 17:30N 43°18' E 005°21'1 2.0
2018-Jun-15 16:55N 43°19' E 005°22'0 0.0
2018-Jun-15 16:25N 43°19' E 005°22'0 0.0
2018-Jun-15 11:43N 43°19' E 005°22'0 0.0
2018-Jun-15 07:04N 43°19' E 005°22'0 0.0
2018-Jun-15 06:55N 43°19' E 005°22'0 0.0
2018-Jun-15 06:25N 43°19' E 005°22'0 0.0
2018-Jun-15 05:55N 43°19' E 005°22'0 0.0
2018-Jun-15 05:19N 43°19' E 005°22'0 0.0
2018-Jun-15 04:59N 43°19' E 005°22'0 0.3
2018-Jun-15 04:30N 43°19' E 005°22'4 8.8
2018-Jun-15 04:01N 43°15' E 005°18'11917.0
2018-Jun-14 21:01N 42°13' E 007°36'117.4
2018-Jun-14 20:59N 42°12' E 007°37'817.3
2018-Jun-14 20:30N 42°08' E 007°47'917.3
2018-Jun-14 20:00N 42°04' E 007°57'23 1.2
2018-Jun-14 00:28N 42°15' E 007°30'818.0
2018-Jun-14 00:00N 42°19' E 007°20'917.9
2018-Jun-13 23:30N 42°24' E 007°10'917.7
2018-Jun-13 23:00N 42°28' E 006°59'817.0
2018-Jun-13 22:30N 42°33' E 006°49'7717.4
2018-Jun-13 18:05N 43°12' E 005°19'118.0
2018-Jun-13 18:00N 43°13' E 005°18'611.7
2018-Jun-13 17:30N 43°18' E 005°22'0 0.5
2018-Jun-13 16:51N 43°19' E 005°22'0 0.0
2018-Jun-13 16:27N 43°19' E 005°22'0 0.0
2018-Jun-13 10:18N 43°19' E 005°22'0 0.0
2018-Jun-13 09:36N 43°19' E 005°22'0 0.0
2018-Jun-13 08:12N 43°19' E 005°22'0 0.0
2018-Jun-13 07:42N 43°19' E 005°22'0 0.0
2018-Jun-13 07:21N 43°19' E 005°22'0 0.0
2018-Jun-13 06:57N 43°19' E 005°22'0 0.0
2018-Jun-13 06:27N 43°19' E 005°22'0 0.0
2018-Jun-13 05:57N 43°19' E 005°22'0 0.0
2018-Jun-13 05:30N 43°19' E 005°22'0 0.0
2018-Jun-13 05:00N 43°19' E 005°22'1 1.4
2018-Jun-13 04:30N 43°18' E 005°22'5 9.6
2018-Jun-13 04:00N 43°14' E 005°18'93 3.3
2018-Jun-11 23:28N 42°25' E 007°07'2018.5
2018-Jun-11 22:24N 42°35' E 006°44'7318.0
2018-Jun-11 18:21N 43°11' E 005°18'615.7
2018-Jun-11 17:59N 43°17' E 005°20'2 4.2
2018-Jun-11 17:25N 43°19' E 005°22'0 0.0
2018-Jun-11 16:55N 43°19' E 005°22'0 0.0
2018-Jun-11 13:07N 43°19' E 005°22'0 0.0
2018-Jun-11 12:58N 43°19' E 005°22'0 0.0
2018-Jun-11 12:16N 43°19' E 005°22'0 0.0
2018-Jun-11 11:46N 43°19' E 005°22'0 0.0
2018-Jun-11 11:28N 43°19' E 005°22'0 0.0
2018-Jun-11 10:58N 43°19' E 005°22'0 0.0
2018-Jun-11 10:28N 43°19' E 005°22'0 0.0
2018-Jun-11 09:58N 43°19' E 005°22'0 0.0
2018-Jun-11 09:07N 43°19' E 005°22'0 0.0
2018-Jun-11 08:55N 43°19' E 005°22'0 0.0
2018-Jun-11 08:16N 43°19' E 005°22'0 0.0
2018-Jun-11 07:55N 43°19' E 005°22'0 0.0
2018-Jun-11 07:22N 43°19' E 005°22'0 0.0
2018-Jun-11 06:55N 43°19' E 005°22'0 0.0
2018-Jun-11 06:25N 43°19' E 005°22'0 0.0
2018-Jun-11 05:52N 43°19' E 005°22'0 0.0
2018-Jun-11 05:19N 43°19' E 005°22'0 0.0
2018-Jun-11 04:55N 43°19' E 005°22'0 0.2
2018-Jun-11 04:29N 43°19' E 005°22'4 9.1
2018-Jun-11 04:00N 43°15' E 005°18'3615.3
2018-Jun-11 01:38N 42°54' E 005°58'316.9
2018-Jun-11 01:27N 42°52' E 006°02'2017.3
2018-Jun-11 00:19N 42°42' E 006°25'617.4
2018-Jun-10 23:57N 42°39' E 006°33'817.3
2018-Jun-10 23:30N 42°35' E 006°42'917.4
2018-Jun-10 23:00N 42°31' E 006°52'917.7
2018-Jun-10 22:30N 42°27' E 007°02'917.5
2018-Jun-10 22:00N 42°23' E 007°13'917.3
2018-Jun-10 21:30N 42°19' E 007°23'917.2
2018-Jun-10 21:00N 42°14' E 007°33'917.1
2018-Jun-10 20:30N 42°10' E 007°43'2517.1
2018-Jun-10 19:04N 41°58' E 008°12'17 1.0
2018-Jun-10 02:23N 42°06' E 007°52'615.8
2018-Jun-10 02:01N 42°09' E 007°45'815.6
2018-Jun-10 01:31N 42°13' E 007°36'815.4
2018-Jun-10 01:00N 42°16' E 007°27'815.2
2018-Jun-10 00:30N 42°20' E 007°18'815.5
2018-Jun-10 00:01N 42°24' E 007°09'815.8
2018-Jun-09 23:31N 42°27' E 006°59'815.8
2018-Jun-09 23:01N 42°31' E 006°49'816.0
2018-Jun-09 22:31N 42°35' E 006°40'6815.4
2018-Jun-09 18:07N 43°09' E 005°21'  
Track history (hours):
 
Tides and Currents Weather Stations Pressure Air Temp Water Temp Dewpoint Dewpoint Depression Visibility Wind Speed Wind Dir Waves Ship Positions

Girolata

Last reported at 2018-Jun-19 18:01 UTC. Time now 2018-Jun-19 20:03 UTC.
Position N 43°11' E 005°19'.

Length 177 m; beam 27 m.

Type: Passenger vessel. MMSI: 226245000.

Date/timePositionNaut miles runAvg speedWind from/ knotsBaromVisibWave heightAir tempDewpointWater temp
2018-Jun-19 18:01N 43°11' E 005°19'017.2
2018-Jun-19 18:00N 43°12' E 005°19'612.7
2018-Jun-19 17:31N 43°18' E 005°21'1 1.8
2018-Jun-19 16:54N 43°19' E 005°22'0 0.0
2018-Jun-19 16:06N 43°19' E 005°22'0 0.0
2018-Jun-19 15:57N 43°19' E 005°22'0 0.0
2018-Jun-19 15:30N 43°19' E 005°22'0 0.0
2018-Jun-19 15:00N 43°19' E 005°22'0 0.0
2018-Jun-19 14:15N 43°19' E 005°22'0 0.0
2018-Jun-19 13:51N 43°19' E 005°22'0 0.0
2018-Jun-19 13:27N 43°19' E 005°22'0 0.0
2018-Jun-19 12:03N 43°19' E 005°22'0 0.0
2018-Jun-19 11:57N 43°19' E 005°22'0 0.0
2018-Jun-19 11:27N 43°19' E 005°22'0 0.0
2018-Jun-19 10:57N 43°19' E 005°22'0 0.0
2018-Jun-19 10:27N 43°19' E 005°22'0 0.0
2018-Jun-19 10:00N 43°19' E 005°22'0 0.0
2018-Jun-19 09:30N 43°19' E 005°22'0 0.0
2018-Jun-19 09:00N 43°19' E 005°22'0 0.0
2018-Jun-19 08:30N 43°19' E 005°22'0 0.0
2018-Jun-19 07:54N 43°19' E 005°22'0 0.0
2018-Jun-19 07:30N 43°19' E 005°22'0 0.0
2018-Jun-19 07:00N 43°19' E 005°22'0 0.0
2018-Jun-19 06:30N 43°19' E 005°22'0 0.0
2018-Jun-19 06:00N 43°19' E 005°22'0 0.0
2018-Jun-19 05:30N 43°19' E 005°22'0 0.0
2018-Jun-19 04:58N 43°19' E 005°22'1 1.4
2018-Jun-19 04:31N 43°18' E 005°22'510.4
2018-Jun-19 04:00N 43°13' E 005°18'7416.5
2018-Jun-18 23:30N 42°34' E 006°44'3016.6
2018-Jun-18 21:43N 42°20' E 007°19'716.5
2018-Jun-18 21:18N 42°16' E 007°27'516.5
2018-Jun-18 20:58N 42°14' E 007°34'11 0.6
2018-Jun-18 01:26N 42°08' E 007°47'716.4
2018-Jun-18 01:00N 42°11' E 007°39'816.2
2018-Jun-18 00:30N 42°15' E 007°29'816.2
2018-Jun-18 00:00N 42°19' E 007°20'816.5
2018-Jun-17 23:31N 42°23' E 007°10'916.7
2018-Jun-17 22:59N 42°27' E 006°60'816.7
2018-Jun-17 22:30N 42°31' E 006°50'816.8
2018-Jun-17 22:00N 42°36' E 006°41'816.8
2018-Jun-17 21:31N 42°40' E 006°31'816.6
2018-Jun-17 21:01N 42°44' E 006°21'5316.7
2018-Jun-17 17:49N 43°11' E 005°18'515.7
2018-Jun-17 17:30N 43°16' E 005°19'3 5.4
2018-Jun-17 16:53N 43°19' E 005°22'0 0.0
2018-Jun-17 16:29N 43°19' E 005°22'0 0.0
2018-Jun-17 15:59N 43°19' E 005°22'0 0.0
2018-Jun-17 15:29N 43°19' E 005°22'0 0.0
2018-Jun-17 14:53N 43°19' E 005°22'0 0.0
2018-Jun-17 14:29N 43°19' E 005°22'0 0.0
2018-Jun-17 13:59N 43°19' E 005°22'0 0.0
2018-Jun-17 13:29N 43°19' E 005°22'0 0.0
2018-Jun-17 12:47N 43°19' E 005°22'0 0.0
2018-Jun-17 12:29N 43°19' E 005°22'0 0.0
2018-Jun-17 11:59N 43°19' E 005°22'0 0.0
2018-Jun-17 11:29N 43°19' E 005°22'0 0.0
2018-Jun-17 10:59N 43°19' E 005°22'0 0.0
2018-Jun-17 10:29N 43°19' E 005°22'0 0.0
2018-Jun-17 09:53N 43°19' E 005°22'0 0.0
2018-Jun-17 09:29N 43°19' E 005°22'0 0.0
2018-Jun-17 08:59N 43°19' E 005°22'0 0.0
2018-Jun-17 08:29N 43°19' E 005°22'0 0.0
2018-Jun-17 07:59N 43°19' E 005°22'0 0.0
2018-Jun-17 07:29N 43°19' E 005°22'0 0.0
2018-Jun-17 06:59N 43°19' E 005°22'0 0.0
2018-Jun-17 06:29N 43°19' E 005°22'0 0.0
2018-Jun-17 05:59N 43°19' E 005°22'0 0.0
2018-Jun-17 05:30N 43°19' E 005°22'3 5.4
2018-Jun-17 05:00N 43°17' E 005°19'3113.7
2018-Jun-17 02:44N 42°56' E 005°51'415.4
2018-Jun-17 02:30N 42°54' E 005°55'815.7
2018-Jun-17 02:01N 42°51' E 006°04'815.8
2018-Jun-17 01:31N 42°47' E 006°14'815.9
2018-Jun-17 01:00N 42°43' E 006°23'816.1
2018-Jun-17 00:31N 42°39' E 006°33'815.9
2018-Jun-17 00:01N 42°35' E 006°43'815.4
2018-Jun-16 23:31N 42°32' E 006°52'815.4
2018-Jun-16 23:01N 42°28' E 007°01'815.2
2018-Jun-16 22:31N 42°24' E 007°10'815.2
2018-Jun-16 22:01N 42°20' E 007°19'815.4
2018-Jun-16 21:31N 42°17' E 007°28'915.3
2018-Jun-16 20:55N 42°12' E 007°38'615.4
2018-Jun-16 20:30N 42°09' E 007°46'815.4
2018-Jun-16 20:00N 42°05' E 007°55'21 1.2
2018-Jun-16 02:38N 41°55' E 008°19'618.1
2018-Jun-16 02:18N 41°58' E 008°12'518.0
2018-Jun-16 02:00N 42°00' E 008°05'918.0
2018-Jun-16 01:31N 42°05' E 007°55'918.0
2018-Jun-16 01:00N 42°09' E 007°44'918.0
2018-Jun-16 00:30N 42°14' E 007°34'918.1
2018-Jun-16 00:01N 42°18' E 007°23'918.0
2018-Jun-15 23:31N 42°22' E 007°12'917.7
2018-Jun-15 23:01N 42°27' E 007°02'917.3
2018-Jun-15 22:30N 42°31' E 006°52'917.7
2018-Jun-15 22:00N 42°35' E 006°41'917.7
2018-Jun-15 21:31N 42°40' E 006°31'917.8
2018-Jun-15 21:00N 42°44' E 006°20'917.1
2018-Jun-15 20:30N 42°48' E 006°10'1017.1
2018-Jun-15 19:54N 42°54' E 005°58'3417.3
2018-Jun-15 17:55N 43°12' E 005°19'613.9
2018-Jun-15 17:30N 43°18' E 005°21'1 2.0
2018-Jun-15 16:55N 43°19' E 005°22'0 0.0
2018-Jun-15 16:25N 43°19' E 005°22'0 0.0
2018-Jun-15 11:43N 43°19' E 005°22'0 0.0
2018-Jun-15 07:04N 43°19' E 005°22'0 0.0
2018-Jun-15 06:55N 43°19' E 005°22'0 0.0
2018-Jun-15 06:25N 43°19' E 005°22'0 0.0
2018-Jun-15 05:55N 43°19' E 005°22'0 0.0
2018-Jun-15 05:19N 43°19' E 005°22'0 0.0
2018-Jun-15 04:59N 43°19' E 005°22'0 0.3
2018-Jun-15 04:30N 43°19' E 005°22'4 8.8
2018-Jun-15 04:01N 43°15' E 005°18'11917.0
2018-Jun-14 21:01N 42°13' E 007°36'117.4
2018-Jun-14 20:59N 42°12' E 007°37'817.3
2018-Jun-14 20:30N 42°08' E 007°47'917.3
2018-Jun-14 20:00N 42°04' E 007°57'23 1.2
2018-Jun-14 00:28N 42°15' E 007°30'818.0
2018-Jun-14 00:00N 42°19' E 007°20'917.9
2018-Jun-13 23:30N 42°24' E 007°10'917.7
2018-Jun-13 23:00N 42°28' E 006°59'817.0
2018-Jun-13 22:30N 42°33' E 006°49'7717.4
2018-Jun-13 18:05N 43°12' E 005°19'118.0
2018-Jun-13 18:00N 43°13' E 005°18'611.7
2018-Jun-13 17:30N 43°18' E 005°22'0 0.5
2018-Jun-13 16:51N 43°19' E 005°22'0 0.0
2018-Jun-13 16:27N 43°19' E 005°22'0 0.0
2018-Jun-13 10:18N 43°19' E 005°22'0 0.0
2018-Jun-13 09:36N 43°19' E 005°22'0 0.0
2018-Jun-13 08:12N 43°19' E 005°22'0 0.0
2018-Jun-13 07:42N 43°19' E 005°22'0 0.0
2018-Jun-13 07:21N 43°19' E 005°22'0 0.0
2018-Jun-13 06:57N 43°19' E 005°22'0 0.0
2018-Jun-13 06:27N 43°19' E 005°22'0 0.0
2018-Jun-13 05:57N 43°19' E 005°22'0 0.0
2018-Jun-13 05:30N 43°19' E 005°22'0 0.0
2018-Jun-13 05:00N 43°19' E 005°22'1 1.4
2018-Jun-13 04:30N 43°18' E 005°22'5 9.6
2018-Jun-13 04:00N 43°14' E 005°18'93 3.3
2018-Jun-11 23:28N 42°25' E 007°07'2018.5
2018-Jun-11 22:24N 42°35' E 006°44'7318.0
2018-Jun-11 18:21N 43°11' E 005°18'615.7
2018-Jun-11 17:59N 43°17' E 005°20'2 4.2
2018-Jun-11 17:25N 43°19' E 005°22'0 0.0
2018-Jun-11 16:55N 43°19' E 005°22'0 0.0
2018-Jun-11 13:07N 43°19' E 005°22'0 0.0
2018-Jun-11 12:58N 43°19' E 005°22'0 0.0
2018-Jun-11 12:16N 43°19' E 005°22'0 0.0
2018-Jun-11 11:46N 43°19' E 005°22'0 0.0
2018-Jun-11 11:28N 43°19' E 005°22'0 0.0
2018-Jun-11 10:58N 43°19' E 005°22'0 0.0
2018-Jun-11 10:28N 43°19' E 005°22'0 0.0
2018-Jun-11 09:58N 43°19' E 005°22'0 0.0
2018-Jun-11 09:07N 43°19' E 005°22'0 0.0
2018-Jun-11 08:55N 43°19' E 005°22'0 0.0
2018-Jun-11 08:16N 43°19' E 005°22'0 0.0
2018-Jun-11 07:55N 43°19' E 005°22'0 0.0
2018-Jun-11 07:22N 43°19' E 005°22'0 0.0
2018-Jun-11 06:55N 43°19' E 005°22'0 0.0
2018-Jun-11 06:25N 43°19' E 005°22'0 0.0
2018-Jun-11 05:52N 43°19' E 005°22'0 0.0
2018-Jun-11 05:19N 43°19' E 005°22'0 0.0
2018-Jun-11 04:55N 43°19' E 005°22'0 0.2
2018-Jun-11 04:29N 43°19' E 005°22'4 9.1
2018-Jun-11 04:00N 43°15' E 005°18'3615.3
2018-Jun-11 01:38N 42°54' E 005°58'316.9
2018-Jun-11 01:27N 42°52' E 006°02'2017.3
2018-Jun-11 00:19N 42°42' E 006°25'617.4
2018-Jun-10 23:57N 42°39' E 006°33'817.3
2018-Jun-10 23:30N 42°35' E 006°42'917.4
2018-Jun-10 23:00N 42°31' E 006°52'917.7
2018-Jun-10 22:30N 42°27' E 007°02'917.5
2018-Jun-10 22:00N 42°23' E 007°13'917.3
2018-Jun-10 21:30N 42°19' E 007°23'917.2
2018-Jun-10 21:00N 42°14' E 007°33'917.1
2018-Jun-10 20:30N 42°10' E 007°43'2517.1
2018-Jun-10 19:04N 41°58' E 008°12'17 1.0
2018-Jun-10 02:23N 42°06' E 007°52'615.8
2018-Jun-10 02:01N 42°09' E 007°45'815.6
2018-Jun-10 01:31N 42°13' E 007°36'815.4
2018-Jun-10 01:00N 42°16' E 007°27'815.2
2018-Jun-10 00:30N 42°20' E 007°18'815.5
2018-Jun-10 00:01N 42°24' E 007°09'815.8
2018-Jun-09 23:31N 42°27' E 006°59'815.8
2018-Jun-09 23:01N 42°31' E 006°49'816.0
2018-Jun-09 22:31N 42°35' E 006°40'6815.4
2018-Jun-09 18:07N 43°09' E 005°21'  

Dump ship's entire track history